Time;durP1;ratioP1;P1;durP2;ratioP2;P2;SDS_P1;SDS_P2;PMS_P1;PMS_P2;Temp;Humidity;BMP_temperature;BMP_pressure;BME280_temperature;BME280_humidity;BME280_pressure;Samples;Min_cycle;Max_cycle;Signal;HPM_P1;HPM_P2
2023/01/01 00:01:14;;;;;;;1.10;1.05;;;;;;;16.53;51.97;100697.34;5101411;28;20035;-80
2023/01/01 00:03:41;;;;;;;0.68;0.63;;;;;;;16.57;52.15;100696.25;5109196;28;20032;-80
2023/01/01 00:06:11;;;;;;;1.95;1.85;;;;;;;16.46;52.17;100707.44;5105128;28;20047;-80
2023/01/01 00:08:38;;;;;;;2.28;1.52;;;;;;;16.47;52.11;100694.03;5105841;28;20055;-79
2023/01/01 00:11:07;;;;;;;1.55;1.25;;;;;;;16.39;52.12;100688.16;5118832;27;20028;-80
2023/01/01 00:13:35;;;;;;;2.08;1.98;;;;;;;16.35;52.51;100686.56;5118496;28;20020;-80
2023/01/01 00:16:05;;;;;;;0.57;0.57;;;;;;;16.45;52.07;100685.19;5118352;28;20024;-80
2023/01/01 00:18:31;;;;;;;2.53;2.40;;;;;;;16.39;52.70;100690.84;5118922;28;20556;-80
2023/01/01 00:21:03;;;;;;;2.25;2.15;;;;;;;16.31;52.72;100709.91;5122826;27;20024;-79
2023/01/01 00:23:29;;;;;;;1.13;1.13;;;;;;;16.36;52.53;100701.66;5120661;28;20098;-80
2023/01/01 00:25:55;;;;;;;1.08;1.08;;;;;;;16.42;52.81;100709.41;5118072;28;20027;-80
2023/01/01 00:28:21;;;;;;;0.55;0.55;;;;;;;16.34;53.05;100698.22;5118161;28;20077;-80
2023/01/01 00:30:47;;;;;;;0.90;0.90;;;;;;;16.24;53.04;100692.41;5117187;28;20027;-80
2023/01/01 00:33:13;;;;;;;0.98;0.98;;;;;;;16.33;52.81;100707.16;5117586;28;20031;-80
2023/01/01 00:35:40;;;;;;;1.25;1.15;;;;;;;16.29;52.63;100702.91;5117884;28;20051;-80
2023/01/01 00:38:06;;;;;;;1.42;0.82;;;;;;;16.34;52.86;100690.19;5116439;28;20036;-80
2023/01/01 00:40:32;;;;;;;0.20;0.20;;;;;;;16.44;52.53;100694.16;5115458;28;20043;-80
2023/01/01 00:42:59;;;;;;;1.67;1.58;;;;;;;16.39;52.50;100685.50;5117599;28;20034;-80
2023/01/01 00:45:26;;;;;;;0.20;0.20;;;;;;;16.42;52.51;100704.03;5118321;28;20030;-80
2023/01/01 00:47:53;;;;;;;0.98;0.68;;;;;;;16.36;52.42;100707.00;5118100;28;20032;-80
2023/01/01 00:50:21;;;;;;;0.10;0.10;;;;;;;16.36;52.54;100701.66;5116450;27;20035;-80
2023/01/01 00:52:48;;;;;;;0.40;0.40;;;;;;;16.29;52.52;100700.22;5110099;28;20027;-80
2023/01/01 00:55:14;;;;;;;2.05;0.75;;;;;;;16.36;52.21;100695.44;5116569;28;20486;-80
2023/01/01 00:57:40;;;;;;;1.92;1.75;;;;;;;16.43;52.34;100702.25;5117271;28;20027;-80
2023/01/01 01:00:07;;;;;;;0.82;0.77;;;;;;;16.25;52.81;100687.91;5115258;28;20444;-80
2023/01/01 01:02:34;;;;;;;0.82;0.82;;;;;;;16.41;52.27;100680.06;5116809;28;20024;-81
2023/01/01 01:05:02;;;;;;;0.95;0.95;;;;;;;16.44;51.99;100718.22;5117624;28;20023;-80
2023/01/01 01:07:32;;;;;;;0.30;0.30;;;;;;;16.36;52.62;100720.38;5116630;28;20023;-80
2023/01/01 01:09:58;;;;;;;0.63;0.63;;;;;;;16.32;52.52;100705.41;5111436;28;20030;-80
2023/01/01 01:12:24;;;;;;;0.30;0.30;;;;;;;16.41;52.44;100704.13;5116871;28;20051;-80
2023/01/01 01:14:50;;;;;;;0.30;0.30;;;;;;;16.40;52.26;100729.13;5117357;28;20042;-80
2023/01/01 01:17:16;;;;;;;0.20;0.20;;;;;;;16.40;52.53;100718.44;5123518;28;20030;-79
2023/01/01 01:19:42;;;;;;;0.15;0.15;;;;;;;16.33;52.73;100717.84;5125805;28;20061;-80
2023/01/01 01:22:08;;;;;;;0.10;0.10;;;;;;;16.29;52.48;100726.97;5123020;28;20398;-80
2023/01/01 01:24:34;;;;;;;0.43;0.43;;;;;;;16.33;52.58;100733.91;5116809;28;20027;-80
2023/01/01 01:27:01;;;;;;;0.10;0.10;;;;;;;16.17;52.96;100757.78;5117127;28;20031;-80
2023/01/01 01:29:27;;;;;;;0.45;0.45;;;;;;;16.26;52.73;100743.13;5126229;28;20020;-80
2023/01/01 01:31:53;;;;;;;0.10;0.10;;;;;;;16.39;53.05;100746.97;5129774;28;20022;-80
2023/01/01 01:34:19;;;;;;;1.38;1.30;;;;;;;16.37;52.79;100739.97;5119546;28;20436;-80
2023/01/01 01:36:45;;;;;;;0.10;0.10;;;;;;;16.30;52.89;100728.72;5121007;28;20024;-79
2023/01/01 01:39:11;;;;;;;0.93;0.93;;;;;;;16.30;52.98;100745.59;5119975;28;20102;-79
2023/01/01 01:41:37;;;;;;;0.10;0.10;;;;;;;16.31;52.88;100743.78;5117992;28;20031;-80
2023/01/01 01:44:27;;;;;;;0.20;0.20;;;;;;;16.30;52.95;100740.25;5116975;28;20228;-79
2023/01/01 01:46:54;;;;;;;1.02;1.02;;;;;;;16.24;52.80;100745.03;5116944;28;20020;-80
2023/01/01 01:49:29;;;;;;;0.20;0.20;;;;;;;16.24;53.17;100750.38;5115594;28;20080;-79
2023/01/01 01:52:00;;;;;;;0.17;0.17;;;;;;;16.24;52.55;100753.91;5116601;28;20032;-80
2023/01/01 01:54:28;;;;;;;1.17;1.17;;;;;;;16.20;52.91;100759.44;5115684;28;20031;-80
2023/01/01 01:57:00;;;;;;;0.20;0.20;;;;;;;16.21;52.59;100755.84;5116107;28;20047;-79
2023/01/01 01:59:30;;;;;;;0.45;0.45;;;;;;;16.18;52.70;100772.88;5115266;28;20054;-80
2023/01/01 02:01:57;;;;;;;0.13;0.13;;;;;;;16.11;52.89;100766.06;5115838;28;20031;-80
2023/01/01 02:04:23;;;;;;;0.52;0.52;;;;;;;16.10;53.06;100775.91;5115607;28;20027;-80
2023/01/01 02:06:51;;;;;;;0.10;0.10;;;;;;;16.00;52.83;100779.94;5114808;28;20091;-80
2023/01/01 02:09:17;;;;;;;3.13;2.92;;;;;;;16.09;52.76;100779.50;5115058;28;20027;-80
2023/01/01 02:11:44;;;;;;;0.05;0.05;;;;;;;16.05;52.70;100782.38;5115938;28;20032;-80
2023/01/01 02:14:10;;;;;;;1.05;1.00;;;;;;;16.02;52.44;100772.69;5115769;28;20455;-80
2023/01/01 02:19:54;;;;;;;0.43;0.43;;;;;;;16.10;52.55;100778.56;5112603;27;20331;-80
2023/01/01 02:28:18;;;;;;;0.10;0.10;;;;;;;16.13;52.55;100786.44;5113777;27;20059;-81
2023/01/01 02:30:47;;;;;;;0.10;0.10;;;;;;;16.06;52.50;100773.44;5112500;28;20495;-80
2023/01/01 02:33:19;;;;;;;0.10;0.10;;;;;;;16.00;52.64;100791.47;5108777;28;20062;-81
2023/01/01 02:35:53;;;;;;;0.95;0.95;;;;;;;16.00;52.50;100795.97;5124850;27;20027;-81
2023/01/01 02:41:09;;;;;;;0.10;0.10;;;;;;;15.91;52.79;100788.31;5072677;28;20382;-80
2023/01/01 02:43:36;;;;;;;0.28;0.28;;;;;;;15.87;53.06;100784.06;5072822;28;20560;-80
2023/01/01 02:46:08;;;;;;;0.10;0.10;;;;;;;15.96;52.97;100783.66;5074385;28;20056;-80
2023/01/01 02:48:52;;;;;;;1.75;1.65;;;;;;;15.96;52.90;100789.00;5071647;28;20025;-80
2023/01/01 02:54:07;;;;;;;0.30;0.30;;;;;;;15.82;53.16;100787.78;5113235;27;20144;-80
2023/01/01 02:56:40;;;;;;;0.10;0.10;;;;;;;15.89;53.33;100798.19;5124566;28;20032;-80
2023/01/01 03:06:22;;;;;;;0.10;0.10;;;;;;;15.89;53.65;100803.53;5156104;27;20587;-80
2023/01/01 03:09:17;;;;;;;0.10;0.10;;;;;;;15.85;53.79;100819.72;5154738;27;20031;-80
2023/01/01 03:14:40;;;;;;;7.50;3.65;;;;;;;15.84;53.51;100817.97;5113560;27;20330;-80
2023/01/01 03:19:50;;;;;;;0.17;0.17;;;;;;;15.80;53.73;100839.50;5112788;27;20387;-80
2023/01/01 03:22:18;;;;;;;0.73;0.73;;;;;;;15.90;53.74;100854.28;5120931;28;20034;-80
2023/01/01 03:27:34;;;;;;;0.13;0.13;;;;;;;15.79;56.59;100878.72;5072771;28;20052;-81
2023/01/01 03:30:07;;;;;;;1.38;1.27;;;;;;;15.60;58.42;100888.41;5071961;28;20049;-82
2023/01/01 03:33:07;;;;;;;;;;;;;;;15.41;58.73;100882.94;5073413;28;20054;-82
2023/01/01 03:35:25;;;;;;;1.33;0.28;;;;;;;14.96;61.00;100871.31;5073415;28;19912;-82
2023/01/01 03:37:55;;;;;;;0.80;0.80;;;;;;;14.82;61.32;100886.03;5070329;28;20162;-79
2023/01/01 03:40:22;;;;;;;1.15;1.05;;;;;;;14.61;62.09;100902.81;5072033;28;20036;-82
2023/01/01 03:42:53;;;;;;;0.10;0.10;;;;;;;14.53;61.90;100871.94;5072993;28;20028;-82
2023/01/01 03:47:55;;;;;;;0.10;0.10;;;;;;;14.67;60.58;100902.63;5114161;27;20383;-82
2023/01/01 03:50:28;;;;;;;0.10;0.10;;;;;;;14.66;60.81;100917.72;5113299;28;20510;-81
2023/01/01 03:53:06;;;;;;;0.10;0.10;;;;;;;14.73;60.82;100926.41;5114957;28;20024;-81
2023/01/01 03:56:00;;;;;;;0.10;0.10;;;;;;;14.79;60.27;100906.63;5125921;27;20455;-81
2023/01/01 04:01:29;;;;;;;0.15;0.15;;;;;;;14.84;59.98;100901.97;5121247;27;1179334;-81
2023/01/01 04:03:56;;;;;;;0.22;0.22;;;;;;;14.76;59.92;100912.94;5119387;27;20082;-81
2023/01/01 04:06:22;;;;;;;0.90;0.90;;;;;;;14.83;60.09;100908.28;5111889;28;20099;-81
2023/01/01 04:08:51;;;;;;;0.10;0.10;;;;;;;14.79;59.97;100917.28;5106482;28;20383;-81
2023/01/01 04:14:07;;;;;;;0.10;0.10;;;;;;;14.73;61.27;100915.72;5123695;28;20039;-81
2023/01/01 04:16:33;;;;;;;0.10;0.10;;;;;;;14.66;62.19;100930.19;5117440;28;20110;-81
2023/01/01 04:19:00;;;;;;;0.10;0.10;;;;;;;14.67;62.41;100907.94;5113749;28;20050;-81
2023/01/01 04:21:26;;;;;;;0.52;0.52;;;;;;;14.60;62.57;100922.38;5104130;28;20028;-81
2023/01/01 04:23:52;;;;;;;0.25;0.25;;;;;;;14.61;62.69;100930.31;5117975;28;20054;-81
2023/01/01 04:26:18;;;;;;;0.10;0.10;;;;;;;14.65;62.98;100933.78;5125767;28;20035;-81
2023/01/01 04:28:44;;;;;;;0.10;0.10;;;;;;;14.62;63.03;100936.56;5119388;28;20446;-81
2023/01/01 04:31:10;;;;;;;0.10;0.10;;;;;;;14.48;63.83;100942.34;5114084;28;20046;-81
2023/01/01 04:33:37;;;;;;;0.13;0.13;;;;;;;14.56;63.40;100950.94;5113271;28;20024;-81
2023/01/01 04:36:05;;;;;;;1.60;0.73;;;;;;;14.52;63.37;100962.66;5105557;28;20028;-81
2023/01/01 04:38:33;;;;;;;0.10;0.10;;;;;;;14.52;63.37;100960.00;5111795;28;20032;-79
2023/01/01 04:41:00;;;;;;;0.20;0.20;;;;;;;14.54;62.69;100987.44;5112896;28;20031;-81
2023/01/01 04:43:27;;;;;;;0.90;0.90;;;;;;;14.47;62.25;100972.63;5113674;28;20102;-81
2023/01/01 04:45:58;;;;;;;0.20;0.20;;;;;;;14.51;62.09;100988.44;5113722;28;20027;-81
2023/01/01 04:48:24;;;;;;;0.10;0.10;;;;;;;14.50;61.76;100981.34;5112416;28;20024;-81
2023/01/01 04:50:59;;;;;;;0.10;0.10;;;;;;;14.42;62.38;100983.44;5106502;28;20031;-80
2023/01/01 04:53:29;;;;;;;1.45;0.80;;;;;;;14.50;61.85;100991.16;5118144;28;20023;-81
2023/01/01 04:55:55;;;;;;;0.35;0.35;;;;;;;14.47;61.82;100996.59;5113564;28;20137;-81
2023/01/01 04:58:21;;;;;;;0.68;0.68;;;;;;;14.48;61.43;100988.56;5121566;28;20395;-80
2023/01/01 05:00:50;;;;;;;0.10;0.10;;;;;;;14.37;61.37;100993.38;5122923;28;20040;-80
2023/01/01 05:03:17;;;;;;;0.17;0.17;;;;;;;14.39;60.88;101005.72;5124157;28;20032;-80
2023/01/01 05:05:43;;;;;;;0.00;0.00;;;;;;;14.29;60.83;101000.75;5122247;28;20030;-80
2023/01/01 05:08:09;;;;;;;0.10;0.10;;;;;;;14.31;60.02;101001.56;5131161;28;20032;-80
2023/01/01 05:10:35;;;;;;;0.10;0.10;;;;;;;14.24;59.33;101001.78;5127895;28;20027;-80
2023/01/01 05:13:06;;;;;;;0.10;0.10;;;;;;;14.43;58.37;101017.16;5114888;28;20024;-80
2023/01/01 05:15:35;;;;;;;0.47;0.47;;;;;;;14.40;58.27;101023.47;5116226;28;20054;-80
2023/01/01 05:18:02;;;;;;;0.10;0.10;;;;;;;14.44;58.10;101005.56;5107747;28;20024;-80
2023/01/01 05:20:28;;;;;;;1.40;1.30;;;;;;;14.47;58.01;101004.59;5111585;28;20036;-80
2023/01/01 05:22:54;;;;;;;0.20;0.20;;;;;;;14.41;58.22;101019.00;5114373;28;20110;-80
2023/01/01 05:25:20;;;;;;;0.52;0.52;;;;;;;14.42;58.08;101031.41;5113487;28;20028;-80
2023/01/01 05:27:46;;;;;;;0.10;0.10;;;;;;;14.41;58.11;101045.66;5106124;28;20036;-80
2023/01/01 05:30:12;;;;;;;0.10;0.10;;;;;;;14.39;58.54;101031.50;5110445;28;20020;-80
2023/01/01 05:32:38;;;;;;;0.40;0.40;;;;;;;14.33;58.55;101043.25;5095928;28;20039;-80
2023/01/01 05:35:04;;;;;;;0.10;0.10;;;;;;;14.33;58.54;101058.34;5101238;28;20491;-80
2023/01/01 05:37:31;;;;;;;0.10;0.10;;;;;;;14.32;58.35;101043.31;5103725;28;20036;-80
2023/01/01 05:39:57;;;;;;;0.10;0.10;;;;;;;14.31;58.54;101045.06;5098551;28;20470;-80
2023/01/01 05:42:23;;;;;;;0.10;0.10;;;;;;;14.23;58.70;101049.78;5096478;28;20066;-80
2023/01/01 05:44:49;;;;;;;0.32;0.32;;;;;;;14.21;58.76;101052.50;5088036;28;20057;-80
2023/01/01 05:47:17;;;;;;;0.10;0.10;;;;;;;14.15;58.89;101071.34;5091967;28;20038;-80
2023/01/01 05:49:43;;;;;;;0.57;0.55;;;;;;;14.28;58.49;101078.94;5105010;28;20020;-79
2023/01/01 05:52:09;;;;;;;0.10;0.10;;;;;;;14.26;57.91;101070.16;5103381;28;20055;-80
2023/01/01 05:54:35;;;;;;;0.20;0.20;;;;;;;14.29;58.25;101078.03;5108650;28;20289;-80
2023/01/01 05:57:01;;;;;;;0.10;0.10;;;;;;;14.21;58.34;101081.81;5109250;28;20028;-80
2023/01/01 05:59:27;;;;;;;0.10;0.10;;;;;;;14.18;58.26;101092.56;5098275;28;20031;-80
2023/01/01 06:01:53;;;;;;;16.17;1.05;;;;;;;14.29;57.97;101080.69;5094126;28;20020;-80
2023/01/01 06:04:22;;;;;;;0.10;0.10;;;;;;;14.29;57.81;101092.22;5099520;28;20407;-80
2023/01/01 06:06:48;;;;;;;0.10;0.10;;;;;;;14.15;57.98;101092.66;5098466;28;20074;-80
2023/01/01 06:09:14;;;;;;;0.10;0.10;;;;;;;14.21;57.71;101087.13;5097618;28;20471;-80
2023/01/01 06:11:40;;;;;;;0.10;0.10;;;;;;;14.16;57.46;101097.06;5098220;28;20020;-80
2023/01/01 06:14:06;;;;;;;0.15;0.15;;;;;;;14.18;57.69;101097.91;5097553;28;20463;-80
2023/01/01 06:16:33;;;;;;;0.55;0.55;;;;;;;14.22;57.13;101112.00;5089871;28;21335;-80
2023/01/01 06:19:02;;;;;;;0.10;0.10;;;;;;;14.28;57.29;101110.94;5095004;28;20039;-86
2023/01/01 06:21:29;;;;;;;0.10;0.10;;;;;;;14.24;57.57;101113.72;5090771;28;20415;-78
2023/01/01 06:23:57;;;;;;;0.10;0.10;;;;;;;14.20;57.35;101121.84;5097636;28;20035;-78
2023/01/01 06:26:27;;;;;;;0.10;0.10;;;;;;;14.16;57.63;101131.72;5087745;28;20070;-78
2023/01/01 06:28:55;;;;;;;0.10;0.10;;;;;;;14.08;57.92;101131.06;5091964;28;20109;-79
2023/01/01 06:31:21;;;;;;;0.10;0.10;;;;;;;14.09;58.25;101130.16;5093829;28;20032;-78
2023/01/01 06:33:49;;;;;;;7.68;2.58;;;;;;;14.10;57.99;101125.72;5096863;28;20032;-78
2023/01/01 06:36:17;;;;;;;0.10;0.10;;;;;;;14.12;57.47;101130.06;5099990;28;20464;-79
2023/01/01 06:38:46;;;;;;;0.10;0.10;;;;;;;14.13;57.80;101137.16;5093671;28;20112;-79
2023/01/01 06:41:15;;;;;;;0.10;0.10;;;;;;;14.09;57.63;101132.81;5097056;28;20024;-78
2023/01/01 06:43:41;;;;;;;0.00;0.00;;;;;;;13.94;57.23;101141.28;5086760;28;20111;-78
2023/01/01 06:46:25;;;;;;;0.10;0.10;;;;;;;14.02;57.28;101144.59;5089820;28;20036;-77
2023/01/01 06:48:58;;;;;;;0.10;0.10;;;;;;;13.95;57.23;101137.69;5093909;28;20487;-77
2023/01/01 06:51:25;;;;;;;;;;;;;;;13.99;57.08;101142.00;5093788;28;20024;-77
2023/01/01 06:53:52;;;;;;;0.10;0.10;;;;;;;13.90;56.96;101146.66;5099110;28;20424;-79
2023/01/01 06:56:19;;;;;;;0.10;0.10;;;;;;;13.85;57.48;101171.72;5096473;28;20028;-79
2023/01/01 06:58:46;;;;;;;0.00;0.00;;;;;;;13.84;57.66;101172.63;5092062;28;20035;-79
2023/01/01 07:01:15;;;;;;;0.10;0.10;;;;;;;13.92;57.26;101186.59;5097064;28;20028;-79
2023/01/01 07:03:42;;;;;;;0.10;0.10;;;;;;;13.89;57.22;101184.00;5091296;28;20052;-79
2023/01/01 07:06:09;;;;;;;0.10;0.10;;;;;;;13.86;57.57;101192.09;5094892;28;20031;-79
2023/01/01 07:08:36;;;;;;;0.10;0.10;;;;;;;13.73;57.68;101203.09;5095648;28;20149;-79
2023/01/01 07:11:02;;;;;;;0.10;0.10;;;;;;;13.76;57.53;101199.47;5097143;28;20108;-79
2023/01/01 07:13:30;;;;;;;0.20;0.20;;;;;;;13.77;57.69;101213.66;5093896;28;20036;-79
2023/01/01 07:15:56;;;;;;;0.10;0.10;;;;;;;13.73;58.00;101212.84;5096613;28;20024;-79
2023/01/01 07:18:23;;;;;;;0.10;0.10;;;;;;;13.67;57.81;101207.69;5097128;28;20036;-79
2023/01/01 07:20:55;;;;;;;0.10;0.10;;;;;;;13.64;58.18;101210.47;5100660;28;20398;-79
2023/01/01 07:23:22;;;;;;;0.10;0.10;;;;;;;13.59;58.22;101232.75;5104118;28;20039;-79
2023/01/01 07:25:50;;;;;;;2.90;0.88;;;;;;;13.58;58.03;101228.34;5092870;28;21255;-79
2023/01/01 07:28:16;;;;;;;0.10;0.10;;;;;;;13.54;58.30;101247.97;5095330;28;20134;-79
2023/01/01 07:30:43;;;;;;;0.10;0.10;;;;;;;13.57;58.04;101252.31;5094205;28;20032;-79
2023/01/01 07:33:12;;;;;;;0.10;0.10;;;;;;;13.49;58.42;101263.19;5096146;28;20028;-79
2023/01/01 07:35:39;;;;;;;0.10;0.10;;;;;;;13.41;58.63;101257.19;5088789;28;20506;-79
2023/01/01 07:38:05;;;;;;;0.10;0.10;;;;;;;13.38;58.80;101259.91;5092196;28;20038;-79
2023/01/01 07:40:31;;;;;;;0.45;0.45;;;;;;;13.35;58.48;101263.50;5091475;28;20119;-79
2023/01/01 07:42:57;;;;;;;0.10;0.10;;;;;;;13.36;59.15;101285.69;5092994;28;20036;-79
2023/01/01 07:45:24;;;;;;;0.10;0.10;;;;;;;13.25;58.98;101285.94;5096675;28;20244;-79
2023/01/01 07:47:53;;;;;;;0.10;0.10;;;;;;;13.17;59.39;101302.09;5097990;28;20028;-79
2023/01/01 07:50:21;;;;;;;0.10;0.10;;;;;;;13.20;59.68;101295.81;5093340;28;20069;-79
2023/01/01 07:52:47;;;;;;;0.80;0.80;;;;;;;13.17;59.51;101310.06;5090015;28;20310;-79
2023/01/01 07:55:15;;;;;;;0.00;0.00;;;;;;;13.14;59.60;101299.47;5091689;28;20634;-79
2023/01/01 07:57:42;;;;;;;9.40;2.38;;;;;;;13.09;59.73;101314.69;5095466;28;20138;-79
2023/01/01 08:00:11;;;;;;;0.10;0.10;;;;;;;13.06;59.54;101312.06;5096895;28;20032;-79
2023/01/01 08:02:38;;;;;;;0.10;0.10;;;;;;;12.95;60.18;101334.47;5097362;28;20035;-78
2023/01/01 08:05:04;;;;;;;0.10;0.10;;;;;;;12.95;60.05;101326.50;5099168;28;20058;-78
2023/01/01 08:07:31;;;;;;;0.10;0.10;;;;;;;13.02;59.56;101326.38;5098000;28;20492;-80
2023/01/01 08:09:57;;;;;;;0.10;0.10;;;;;;;13.02;60.00;101329.91;5094861;28;20020;-79
2023/01/01 08:12:23;;;;;;;0.10;0.10;;;;;;;13.05;59.56;101347.59;5095593;28;20028;-80
2023/01/01 08:14:49;;;;;;;0.10;0.10;;;;;;;13.01;59.88;101337.91;5094506;28;20545;-80
2023/01/01 08:17:15;;;;;;;0.10;0.10;;;;;;;12.95;59.95;101330.97;5093436;28;20088;-80
2023/01/01 08:19:43;;;;;;;0.00;0.00;;;;;;;12.97;60.02;101326.47;5094958;28;20031;-80
2023/01/01 08:22:09;;;;;;;0.10;0.10;;;;;;;12.99;59.67;101340.63;5099894;28;20026;-80
2023/01/01 08:24:35;;;;;;;0.10;0.10;;;;;;;12.97;59.72;101342.41;5101142;28;20028;-79
2023/01/01 08:27:02;;;;;;;0.30;0.30;;;;;;;13.00;60.22;101342.38;5095280;28;20111;-79
2023/01/01 08:29:28;;;;;;;0.10;0.10;;;;;;;13.01;59.64;101336.16;5095180;28;20543;-79
2023/01/01 08:31:54;;;;;;;0.10;0.10;;;;;;;13.01;59.61;101337.91;5093292;28;20032;-79
2023/01/01 08:34:20;;;;;;;0.10;0.10;;;;;;;13.03;59.68;101336.09;5097170;28;20052;-79
2023/01/01 08:36:46;;;;;;;0.10;0.10;;;;;;;13.02;59.74;101339.66;5097248;28;20036;-79
2023/01/01 08:39:12;;;;;;;0.10;0.10;;;;;;;13.00;59.76;101338.84;5095731;28;20044;-80
2023/01/01 08:41:38;;;;;;;0.10;0.10;;;;;;;12.95;59.70;101347.78;5096863;28;20021;-77
2023/01/01 08:44:04;;;;;;;0.10;0.10;;;;;;;13.00;60.34;101347.69;5095385;28;20028;-78
2023/01/01 08:46:30;;;;;;;0.10;0.10;;;;;;;13.01;60.15;101343.22;5094098;28;20033;-78
2023/01/01 08:48:56;;;;;;;0.35;0.35;;;;;;;12.98;59.93;101365.44;5097854;28;20050;-77
2023/01/01 08:51:22;;;;;;;0.10;0.10;;;;;;;13.07;60.03;101362.59;5099292;28;20058;-78
2023/01/01 08:53:48;;;;;;;0.10;0.10;;;;;;;13.09;60.14;101360.78;5096950;28;20020;-78
2023/01/01 08:56:14;;;;;;;0.10;0.10;;;;;;;13.08;60.20;101363.47;5099309;28;20032;-79
2023/01/01 08:58:41;;;;;;;0.10;0.10;;;;;;;13.11;60.38;101358.97;5097472;28;20032;-79
2023/01/01 09:01:09;;;;;;;0.10;0.10;;;;;;;13.13;59.97;101369.56;5099815;28;20087;-79
2023/01/01 09:03:36;;;;;;;0.10;0.10;;;;;;;13.14;60.68;101366.00;5099458;28;20078;-79
2023/01/01 09:06:02;;;;;;;0.10;0.10;;;;;;;13.13;60.53;101380.19;5100474;28;20039;-79
2023/01/01 09:08:28;;;;;;;0.10;0.10;;;;;;;13.17;60.34;101376.59;5098806;28;20495;-79
2023/01/01 09:10:59;;;;;;;0.08;0.08;;;;;;;13.19;60.34;101380.06;5098728;28;20024;-79
2023/01/01 09:13:25;;;;;;;0.08;0.08;;;;;;;13.15;60.41;101381.06;5100246;28;20032;-79
2023/01/01 09:15:51;;;;;;;0.10;0.10;;;;;;;13.13;60.98;101382.88;5098849;28;20028;-78
2023/01/01 09:18:18;;;;;;;0.30;0.30;;;;;;;13.21;60.84;101380.91;5093661;28;20552;-78
2023/01/01 09:20:44;;;;;;;0.10;0.10;;;;;;;13.18;60.88;101390.75;5096650;28;20038;-77
2023/01/01 09:23:10;;;;;;;0.10;0.10;;;;;;;13.18;60.43;101388.09;5106494;28;20027;-78
2023/01/01 09:25:37;;;;;;;0.10;0.10;;;;;;;13.19;60.76;101387.19;5102595;28;20357;-79
2023/01/01 09:28:06;;;;;;;0.10;0.10;;;;;;;13.34;60.58;101380.66;5103273;28;20024;-79
2023/01/01 09:30:34;;;;;;;0.00;0.00;;;;;;;13.41;59.74;101385.81;5095850;28;20454;-78
2023/01/01 09:33:00;;;;;;;0.10;0.10;;;;;;;13.42;60.59;101392.00;5099850;28;20028;-79
2023/01/01 09:35:27;;;;;;;0.10;0.10;;;;;;;13.47;60.16;101382.16;5099375;28;20066;-79
2023/01/01 09:37:53;;;;;;;0.30;0.30;;;;;;;13.47;60.35;101382.16;5099276;28;20039;-79
2023/01/01 09:40:35;;;;;;;0.10;0.10;;;;;;;13.54;59.99;101389.06;5096368;28;20036;-79
2023/01/01 09:43:30;;;;;;;0.10;0.10;;;;;;;13.63;60.06;101393.28;5099157;28;20055;-79
2023/01/01 09:46:06;;;;;;;0.10;0.10;;;;;;;13.66;60.24;101405.69;5098451;28;20027;-79
2023/01/01 09:48:36;;;;;;;0.10;0.10;;;;;;;13.58;60.18;101405.84;5098990;28;20028;-79
2023/01/01 09:51:09;;;;;;;0.10;0.10;;;;;;;13.63;60.04;101411.06;5098701;28;20020;-79
2023/01/01 09:56:24;;;;;;;0.10;0.10;;;;;;;13.74;60.12;101417.91;5074596;28;20410;-78
2023/01/01 09:58:51;;;;;;;0.10;0.10;;;;;;;13.66;60.76;101419.00;5072908;28;20295;-79
2023/01/01 10:01:43;;;;;;;0.95;0.95;;;;;;;13.75;60.90;101429.41;5072718;28;20037;-79
2023/01/01 10:04:49;;;;;;;0.10;0.10;;;;;;;13.79;61.09;101420.44;5070784;28;20094;-79
2023/01/01 10:07:46;;;;;;;0.10;0.10;;;;;;;13.77;61.54;101438.25;5071019;28;20037;-79
2023/01/01 10:10:30;;;;;;;0.10;0.10;;;;;;;13.73;61.72;101431.22;5064614;28;20413;-79
2023/01/01 10:13:09;;;;;;;0.10;0.10;;;;;;;13.75;62.42;101418.75;5062417;28;20024;-79
2023/01/01 10:15:42;;;;;;;0.10;0.10;;;;;;;13.72;62.63;101411.72;5074416;28;20076;-79
2023/01/01 10:18:18;;;;;;;0.10;0.10;;;;;;;13.69;62.56;101410.91;5068024;28;20037;-79
2023/01/01 10:21:07;;;;;;;0.10;0.10;;;;;;;13.70;62.64;101413.53;5056989;28;20481;-79
2023/01/01 10:23:41;;;;;;;0.00;0.00;;;;;;;13.77;62.34;101405.41;5060813;28;20044;-79
2023/01/01 10:26:14;;;;;;;0.10;0.10;;;;;;;13.78;62.83;101399.16;5057225;28;20036;-79
2023/01/01 10:28:49;;;;;;;1.75;0.75;;;;;;;13.81;62.15;101401.78;5059803;28;20024;-78
2023/01/01 10:31:19;;;;;;;0.05;0.05;;;;;;;13.81;62.57;101399.97;5071353;28;20028;-77
2023/01/01 10:33:47;;;;;;;0.10;0.10;;;;;;;13.89;62.43;101376.69;5068030;28;20032;-78
2023/01/01 10:36:16;;;;;;;0.10;0.10;;;;;;;13.99;62.54;101379.97;5057819;28;20116;-78
2023/01/01 10:38:43;;;;;;;0.10;0.10;;;;;;;14.02;62.73;101395.03;5068754;28;20035;-78
2023/01/01 10:41:11;;;;;;;0.10;0.10;;;;;;;14.05;62.45;101413.59;5068679;28;20037;-78
2023/01/01 10:43:38;;;;;;;0.10;0.10;;;;;;;14.03;62.38;101429.63;5070348;28;20492;-78
2023/01/01 10:46:08;;;;;;;0.10;0.10;;;;;;;14.14;62.39;101420.47;5060534;28;20519;-78
2023/01/01 10:48:34;;;;;;;0.10;0.10;;;;;;;14.10;62.84;101421.47;5065744;28;20491;-78
2023/01/01 10:51:04;;;;;;;0.10;0.10;;;;;;;14.22;62.35;101423.81;5066155;28;20021;-78
2023/01/01 10:53:51;;;;;;;0.10;0.10;;;;;;;14.37;62.23;101438.53;5071185;28;20029;-79
2023/01/01 10:56:19;;;;;;;0.75;0.75;;;;;;;14.30;62.60;101442.28;5070273;28;20024;-78
2023/01/01 10:58:53;;;;;;;0.10;0.10;;;;;;;14.35;62.30;101456.34;5067486;28;20067;-79
2023/01/01 11:01:26;;;;;;;0.10;0.10;;;;;;;14.29;62.50;101452.03;5065050;28;20112;-79
2023/01/01 11:06:46;;;;;;;0.10;0.10;;;;;;;14.39;62.45;101452.69;5111851;27;20359;-79
2023/01/01 11:09:35;;;;;;;0.20;0.20;;;;;;;14.46;62.53;101451.63;5097147;28;20032;-79
2023/01/01 11:12:05;;;;;;;0.10;0.10;;;;;;;14.44;62.41;101450.78;5093340;28;20047;-79
2023/01/01 11:14:39;;;;;;;0.10;0.10;;;;;;;14.33;62.47;101460.84;5093783;28;20496;-79
2023/01/01 11:17:06;;;;;;;0.10;0.10;;;;;;;14.31;62.72;101449.38;5093365;28;20028;-79
2023/01/01 11:19:36;;;;;;;0.38;0.32;;;;;;;14.27;62.78;101453.00;5103395;28;20028;-79
2023/01/01 11:22:03;;;;;;;0.10;0.10;;;;;;;14.29;62.73;101453.84;5093995;28;20040;-79
2023/01/01 11:24:30;;;;;;;0.10;0.10;;;;;;;14.29;62.83;101456.50;5095197;28;20028;-79
2023/01/01 11:27:20;;;;;;;0.10;0.10;;;;;;;14.31;62.95;101452.88;5097820;28;20111;-79
2023/01/01 11:29:46;;;;;;;0.10;0.10;;;;;;;14.31;63.16;101452.03;5073800;28;20058;-79
2023/01/01 11:32:21;;;;;;;0.10;0.10;;;;;;;14.34;63.04;101438.59;5092306;28;20032;-79
2023/01/01 11:34:56;;;;;;;0.05;0.05;;;;;;;14.33;63.19;101436.84;5094846;28;20024;-79
2023/01/01 11:37:28;;;;;;;0.10;0.10;;;;;;;14.35;63.31;101437.69;5096527;28;20037;-79
2023/01/01 11:39:57;;;;;;;0.10;0.10;;;;;;;14.33;63.52;101442.19;5089846;28;20443;-79
2023/01/01 11:42:27;;;;;;;0.10;0.10;;;;;;;14.40;63.72;101444.66;5093644;28;20024;-79
2023/01/01 11:47:37;;;;;;;0.10;0.10;;;;;;;14.42;63.53;101446.41;5099221;27;20413;-78
2023/01/01 11:50:40;;;;;;;0.10;0.10;;;;;;;14.48;63.58;101451.56;5098614;28;20061;-79
2023/01/01 11:53:28;;;;;;;0.57;0.57;;;;;;;14.42;63.90;101462.38;5092730;28;20035;-79
2023/01/01 11:56:16;;;;;;;0.10;0.10;;;;;;;14.42;63.92;101467.72;5100160;28;20024;-79
2023/01/01 11:59:02;;;;;;;2.17;0.50;;;;;;;14.46;63.68;101453.41;5090935;28;20040;-79
2023/01/01 12:07:16;;;;;;;0.57;0.57;;;;;;;14.52;63.22;101470.13;5106279;27;20412;-79
2023/01/01 12:10:03;;;;;;;0.10;0.10;;;;;;;14.48;62.70;101447.13;5106120;28;20034;-79
2023/01/01 12:18:18;;;;;;;0.10;0.10;;;;;;;14.61;62.02;101466.31;5072477;28;20414;-79
2023/01/01 12:21:10;;;;;;;1.33;1.23;;;;;;;14.59;61.50;101460.16;5061873;28;20120;-79
2023/01/01 12:23:36;;;;;;;0.15;0.15;;;;;;;14.55;61.51;101463.81;5074188;28;20037;-79
2023/01/01 12:32:29;;;;;;;0.45;0.45;;;;;;;14.66;61.54;101452.91;5123964;27;20403;-79
2023/01/01 12:35:10;;;;;;;0.10;0.10;;;;;;;14.71;61.44;101446.50;5074980;28;20040;-79
2023/01/01 12:43:25;;;;;;;0.10;0.10;;;;;;;14.76;61.35;101450.88;5106264;27;1168954;-79
2023/01/01 12:48:57;;;;;;;0.10;0.10;;;;;;;14.80;60.88;101458.72;5065217;28;20410;-79
2023/01/01 12:54:30;;;;;;;0.32;0.32;;;;;;;14.69;60.59;101460.81;5067975;28;20787;-78